Time;durP1;ratioP1;P1;durP2;ratioP2;P2;SDS_P1;SDS_P2;PMS_P1;PMS_P2;Temp;Humidity;BMP_temperature;BMP_pressure;BME280_temperature;BME280_humidity;BME280_pressure;Samples;Min_cycle;Max_cycle;Signal;HPM_P1;HPM_P2
2023/08/19 00:02:12;;;;;;;68.18;60.72;;;20.40;99.90;;;;;;4974831;28;20439;-89
2023/08/19 00:04:37;;;;;;;57.73;51.90;;;20.60;99.90;;;;;;4975809;28;20751;-89
2023/08/19 00:07:03;;;;;;;62.22;55.85;;;20.70;99.90;;;;;;4974001;28;20433;-89
2023/08/19 00:09:29;;;;;;;62.38;55.88;;;20.30;99.90;;;;;;4976723;28;20549;-90
2023/08/19 00:11:55;;;;;;;65.85;58.80;;;20.30;99.90;;;;;;4973927;28;20518;-90
2023/08/19 00:14:20;;;;;;;65.63;58.73;;;20.40;99.90;;;;;;4975715;28;20409;-91
2023/08/19 00:16:46;;;;;;;64.55;57.85;;;20.70;99.90;;;;;;4973977;28;20522;-90
2023/08/19 00:19:12;;;;;;;66.15;58.90;;;20.40;99.90;;;;;;4974944;28;20408;-90
2023/08/19 00:21:38;;;;;;;59.77;53.60;;;20.40;99.90;;;;;;4975242;28;20445;-89
2023/08/19 00:24:04;;;;;;;61.63;55.22;;;20.30;99.90;;;;;;4973947;28;20512;-92
2023/08/19 00:26:29;;;;;;;64.85;58.05;;;20.40;99.90;;;;;;4975095;28;20531;-89
2023/08/19 00:28:55;;;;;;;56.97;51.40;;;20.40;99.90;;;;;;4973384;28;20488;-88
2023/08/19 00:31:21;;;;;;;52.30;47.35;;;20.70;99.90;;;;;;4975304;28;20405;-90
2023/08/19 00:33:46;;;;;;;62.53;56.03;;;20.30;99.90;;;;;;4973354;28;20420;-89
2023/08/19 00:36:12;;;;;;;59.72;53.70;;;20.20;99.90;;;;;;4974475;28;20793;-89
2023/08/19 00:38:38;;;;;;;60.33;54.42;;;20.20;99.90;;;;;;4974397;28;20413;-89
2023/08/19 00:41:03;;;;;;;60.60;54.57;;;20.30;99.90;;;;;;4974246;28;20425;-90
2023/08/19 00:43:30;;;;;;;56.55;50.95;;;20.30;99.90;;;;;;4975113;28;20452;-90
2023/08/19 00:45:56;;;;;;;59.93;54.00;;;20.30;99.90;;;;;;4973231;28;20405;-90
2023/08/19 00:48:25;;;;;;;60.90;54.92;;;20.20;99.90;;;;;;4975184;28;20817;-92
2023/08/19 00:50:51;;;;;;;60.47;54.40;;;20.30;99.90;;;;;;4972494;28;20468;-90
2023/08/19 00:53:17;;;;;;;57.90;52.13;;;20.40;99.90;;;;;;4991530;28;20801;-91
2023/08/19 00:55:43;;;;;;;49.17;44.67;;;20.20;99.90;;;;;;4973645;28;20393;-89
2023/08/19 00:58:09;;;;;;;61.22;54.83;;;20.20;99.90;;;;;;4974349;28;20405;-90
2023/08/19 01:00:35;;;;;;;64.17;57.33;;;20.30;99.90;;;;;;4974362;28;20428;-89
2023/08/19 01:03:04;;;;;;;62.67;56.03;;;20.40;99.90;;;;;;4973417;28;20463;-89
2023/08/19 01:06:07;;;;;;;52.35;47.30;;;20.30;99.90;;;;;;4974908;28;20406;-89
2023/08/19 01:08:59;;;;;;;56.40;50.58;;;20.20;99.90;;;;;;4973714;28;20813;-89
2023/08/19 01:11:39;;;;;;;57.40;51.58;;;20.20;99.90;;;;;;4968202;28;20432;-89
2023/08/19 01:14:28;;;;;;;57.58;51.92;;;20.20;99.90;;;;;;4974720;28;20459;-90
2023/08/19 01:16:54;;;;;;;59.85;53.72;;;20.20;99.90;;;;;;4972846;28;20471;-89
2023/08/19 01:19:29;;;;;;;52.58;47.65;;;20.20;99.90;;;;;;4974427;28;20437;-91
2023/08/19 01:22:02;;;;;;;51.58;46.67;;;20.10;99.90;;;;;;4973979;28;20417;-89
2023/08/19 01:24:42;;;;;;;54.50;49.05;;;20.20;99.90;;;;;;4973355;28;20409;-90
2023/08/19 01:27:27;;;;;;;55.67;50.03;;;20.10;99.90;;;;;;4974136;28;20443;-90
2023/08/19 01:29:52;;;;;;;55.90;50.38;;;20.10;99.90;;;;;;4973382;28;20774;-88
2023/08/19 01:32:20;;;;;;;59.23;52.93;;;20.00;99.90;;;;;;4974217;28;20854;-92
2023/08/19 01:34:47;;;;;;;53.20;47.92;;;20.00;99.90;;;;;;4973791;28;20484;-89
2023/08/19 01:37:36;;;;;;;57.65;51.70;;;20.00;99.90;;;;;;4973471;28;20413;-92
2023/08/19 01:40:02;;;;;;;54.37;48.73;;;20.30;99.90;;;;;;4974370;28;20467;-92
2023/08/19 01:42:29;;;;;;;54.07;48.70;;;20.10;99.90;;;;;;4972775;28;20456;-89
2023/08/19 01:44:55;;;;;;;54.95;49.58;;;20.10;99.90;;;;;;4974447;28;20451;-91
2023/08/19 01:47:21;;;;;;;55.40;49.78;;;20.10;99.90;;;;;;4972747;28;20575;-89
2023/08/19 01:49:47;;;;;;;53.63;48.35;;;20.00;99.90;;;;;;4973867;28;20979;-90
2023/08/19 01:52:13;;;;;;;56.97;51.13;;;20.00;99.90;;;;;;4973928;28;20416;-90
2023/08/19 01:54:39;;;;;;;54.42;48.85;;;20.20;99.90;;;;;;4973313;28;20417;-90
2023/08/19 01:57:06;;;;;;;54.65;49.42;;;20.20;99.90;;;;;;4974497;28;20413;-91
2023/08/19 01:59:32;;;;;;;61.67;55.17;;;20.00;99.90;;;;;;4972976;28;20948;-90
2023/08/19 02:01:58;;;;;;;57.17;51.47;;;20.40;99.90;;;;;;4974764;28;20420;-91
2023/08/19 02:04:24;;;;;;;55.15;49.67;;;20.20;99.90;;;;;;4976631;28;20413;-89
2023/08/19 02:06:50;;;;;;;54.90;49.38;;;20.10;99.90;;;;;;4977919;28;20936;-90
2023/08/19 02:09:16;;;;;;;54.63;49.10;;;20.10;99.90;;;;;;4977135;28;20421;-91
2023/08/19 02:11:41;;;;;;;56.75;50.95;;;20.40;99.90;;;;;;4977005;28;20400;-89
2023/08/19 02:14:08;;;;;;;56.07;50.53;;;20.00;99.90;;;;;;4977840;28;20417;-89
2023/08/19 02:16:34;;;;;;;51.75;46.55;;;20.10;99.90;;;;;;4975919;28;20405;-91
2023/08/19 02:19:00;;;;;;;60.17;53.75;;;20.00;99.90;;;;;;4977596;28;20887;-90
2023/08/19 02:21:26;;;;;;;58.07;52.17;;;20.20;99.90;;;;;;4975786;28;20413;-90
2023/08/19 02:23:52;;;;;;;56.72;50.90;;;20.10;99.90;;;;;;4977722;28;20773;-90
2023/08/19 02:26:18;;;;;;;55.00;49.30;;;20.20;99.90;;;;;;4976384;28;20999;-90
2023/08/19 02:28:44;;;;;;;57.75;51.85;;;20.20;99.90;;;;;;4977400;28;20508;-92
2023/08/19 02:31:09;;;;;;;53.43;47.90;;;20.40;99.90;;;;;;4977068;28;20409;-90
2023/08/19 02:33:36;;;;;;;49.35;44.60;;;20.10;99.90;;;;;;4976016;28;20509;-91
2023/08/19 02:36:03;;;;;;;57.83;51.87;;;20.00;99.90;;;;;;4977245;28;20416;-89
2023/08/19 02:38:29;;;;;;;54.33;48.78;;;20.10;99.90;;;;;;4975711;28;20409;-90
2023/08/19 02:40:56;;;;;;;53.37;47.97;;;20.40;99.90;;;;;;4977652;28;20439;-89
2023/08/19 02:43:22;;;;;;;54.65;49.00;;;20.30;99.90;;;;;;4976425;28;20790;-91
2023/08/19 02:45:47;;;;;;;50.83;45.73;;;20.10;99.90;;;;;;4977533;28;20413;-91
2023/08/19 02:48:14;;;;;;;54.45;49.05;;;20.00;99.90;;;;;;4976323;28;20428;-90
2023/08/19 02:50:40;;;;;;;56.40;50.65;;;20.50;99.90;;;;;;4975761;28;20444;-90
2023/08/19 02:53:06;;;;;;;56.30;50.60;;;20.10;99.90;;;;;;4977347;28;20443;-91
2023/08/19 02:55:32;;;;;;;51.27;46.30;;;20.10;99.90;;;;;;4975664;28;20818;-91
2023/08/19 02:57:59;;;;;;;51.13;46.08;;;20.10;99.90;;;;;;4977183;28;20405;-91
2023/08/19 03:00:26;;;;;;;55.25;49.72;;;20.60;99.90;;;;;;4974980;28;20467;-89
2023/08/19 03:02:52;;;;;;;52.00;46.83;;;20.30;99.90;;;;;;4977032;28;20406;-90
2023/08/19 03:05:18;;;;;;;52.00;46.80;;;20.10;99.90;;;;;;4975760;28;20417;-89
2023/08/19 03:07:43;;;;;;;48.47;43.78;;;20.40;99.90;;;;;;4975763;28;20510;-89
2023/08/19 03:10:09;;;;;;;49.33;44.60;;;20.40;99.90;;;;;;4976478;28;20412;-89
2023/08/19 03:12:35;;;;;;;47.08;42.55;;;20.00;99.90;;;;;;4975212;28;20443;-92
2023/08/19 03:15:01;;;;;;;48.78;44.00;;;20.60;99.90;;;;;;4976165;28;20425;-89
2023/08/19 03:17:27;;;;;;;49.90;45.20;;;20.20;99.90;;;;;;4974825;28;20948;-91
2023/08/19 03:19:52;;;;;;;48.22;43.53;;;20.40;99.90;;;;;;4976401;28;20884;-91
2023/08/19 03:22:18;;;;;;;47.67;43.17;;;20.40;99.90;;;;;;4975310;28;20416;-89
2023/08/19 03:24:44;;;;;;;47.58;42.92;;;20.20;99.90;;;;;;4975979;28;20405;-91
2023/08/19 03:27:10;;;;;;;44.07;39.90;;;20.20;99.90;;;;;;4976108;28;20440;-89
2023/08/19 03:29:36;;;;;;;47.50;42.90;;;20.60;99.90;;;;;;4974938;28;20847;-89
2023/08/19 03:32:01;;;;;;;45.42;41.10;;;20.30;99.90;;;;;;4976465;28;20427;-90
2023/08/19 03:34:27;;;;;;;45.42;41.25;;;20.40;99.90;;;;;;4974899;28;20417;-89
2023/08/19 03:36:53;;;;;;;44.57;40.43;;;20.40;99.90;;;;;;4976293;28;20652;-91
2023/08/19 03:39:19;;;;;;;45.00;40.80;;;20.40;99.90;;;;;;4974592;28;20455;-89
2023/08/19 03:41:45;;;;;;;46.37;41.97;;;20.40;99.90;;;;;;4976073;28;20483;-91
2023/08/19 03:44:11;;;;;;;42.92;38.92;;;20.60;99.90;;;;;;4975676;28;20424;-90
2023/08/19 03:46:38;;;;;;;44.40;40.35;;;20.50;99.90;;;;;;4975204;28;21358;-90
2023/08/19 03:49:04;;;;;;;42.42;38.55;;;20.70;99.90;;;;;;4975717;28;20417;-89
2023/08/19 03:51:30;;;;;;;44.55;40.45;;;20.50;99.90;;;;;;4974493;28;20413;-89
2023/08/19 03:53:56;;;;;;;42.70;38.63;;;20.70;99.90;;;;;;4975571;28;21021;-89
2023/08/19 03:56:22;;;;;;;41.90;38.03;;;20.60;99.90;;;;;;4974379;28;20408;-90
2023/08/19 03:58:48;;;;;;;41.47;37.78;;;20.60;99.90;;;;;;4976127;28;20785;-89
2023/08/19 04:01:13;;;;;;;42.70;38.63;;;20.60;99.90;;;;;;4974498;28;20817;-88
2023/08/19 04:03:39;;;;;;;41.13;37.40;;;20.90;99.90;;;;;;4975687;28;20522;-90
2023/08/19 04:06:05;;;;;;;41.43;37.63;;;20.60;99.90;;;;;;4975369;28;20483;-90
2023/08/19 04:08:31;;;;;;;41.03;37.40;;;20.60;99.90;;;;;;4974224;28;20417;-89
2023/08/19 04:11:07;;;;;;;41.67;37.77;;;20.40;99.90;;;;;;4975788;28;20932;-90
2023/08/19 04:13:32;;;;;;;40.33;36.53;;;20.60;99.90;;;;;;4973889;28;20431;-91
2023/08/19 04:16:05;;;;;;;40.50;36.85;;;21.00;99.90;;;;;;4975563;28;20468;-90
2023/08/19 04:18:32;;;;;;;40.45;36.75;;;20.60;99.90;;;;;;4974205;28;20420;-89
2023/08/19 04:21:04;;;;;;;39.30;35.70;;;20.70;99.90;;;;;;4975324;28;20427;-89
2023/08/19 04:23:30;;;;;;;40.17;36.38;;;20.60;99.90;;;;;;4971879;28;20757;-91
2023/08/19 04:25:56;;;;;;;39.33;35.83;;;20.40;99.90;;;;;;4988198;28;20415;-90
2023/08/19 04:28:22;;;;;;;38.88;35.42;;;20.90;99.90;;;;;;4994249;28;20423;-90
2023/08/19 04:30:48;;;;;;;40.33;36.58;;;20.70;99.90;;;;;;4991459;28;20418;-89
2023/08/19 04:33:14;;;;;;;39.97;36.13;;;20.80;99.90;;;;;;4994167;28;20407;-89
2023/08/19 04:35:40;;;;;;;38.75;35.28;;;21.20;99.90;;;;;;4991976;28;21149;-91
2023/08/19 04:38:05;;;;;;;37.38;33.95;;;20.80;99.90;;;;;;4993881;28;20419;-92
2023/08/19 04:40:31;;;;;;;37.03;33.83;;;21.20;99.90;;;;;;4993887;28;20761;-89
2023/08/19 04:42:57;;;;;;;37.92;34.53;;;20.90;99.90;;;;;;4993169;28;20414;-90
2023/08/19 04:45:24;;;;;;;35.08;31.90;;;21.00;99.90;;;;;;4994700;28;20948;-91
2023/08/19 04:47:53;;;;;;;35.13;32.05;;;21.00;99.90;;;;;;4992658;28;20514;-91
2023/08/19 04:50:21;;;;;;;35.85;32.65;;;21.60;99.90;;;;;;4994387;28;20403;-90
2023/08/19 04:52:47;;;;;;;34.45;31.40;;;21.10;99.90;;;;;;4992889;28;20407;-90
2023/08/19 04:55:14;;;;;;;32.80;29.80;;;21.10;99.90;;;;;;4978880;28;20421;-91
2023/08/19 04:57:42;;;;;;;34.92;31.73;;;21.20;99.90;;;;;;4954393;28;20418;-89
2023/08/19 05:00:12;;;;;;;33.63;30.83;;;21.20;99.90;;;;;;4945593;28;20425;-90
2023/08/19 05:02:38;;;;;;;32.22;29.33;;;21.20;99.90;;;;;;4936420;28;20413;-92
2023/08/19 05:05:04;;;;;;;32.15;29.35;;;21.30;99.90;;;;;;4934929;28;20456;-90
2023/08/19 05:07:30;;;;;;;31.08;28.27;;;21.30;99.90;;;;;;4936414;28;20794;-90
2023/08/19 05:09:55;;;;;;;31.87;29.13;;;21.30;99.90;;;;;;4934749;28;20416;-90
2023/08/19 05:12:22;;;;;;;30.50;27.90;;;21.60;99.90;;;;;;4936230;28;20478;-92
2023/08/19 05:14:48;;;;;;;30.83;28.17;;;21.30;99.90;;;;;;4935198;28;20462;-90
2023/08/19 05:17:14;;;;;;;30.08;27.52;;;21.30;99.90;;;;;;4951724;28;20420;-91
2023/08/19 05:19:40;;;;;;;31.07;28.17;;;21.50;99.90;;;;;;4935992;28;20424;-90
2023/08/19 05:22:06;;;;;;;29.92;27.33;;;21.40;99.90;;;;;;4934815;28;20454;-91
2023/08/19 05:24:32;;;;;;;28.23;25.80;;;21.40;99.90;;;;;;4936795;28;20929;-90
2023/08/19 05:26:59;;;;;;;28.05;25.65;;;21.80;99.90;;;;;;4934144;28;20443;-91
2023/08/19 05:29:24;;;;;;;27.38;25.00;;;21.40;99.90;;;;;;4951830;28;20459;-90
2023/08/19 05:31:50;;;;;;;27.97;25.20;;;21.60;99.90;;;;;;4948913;28;20771;-91
2023/08/19 05:34:15;;;;;;;28.15;25.67;;;21.50;99.90;;;;;;4938021;28;20417;-90
2023/08/19 05:36:41;;;;;;;26.80;24.60;;;21.60;99.90;;;;;;4952097;28;20435;-89
2023/08/19 05:39:07;;;;;;;26.27;23.95;;;21.70;99.90;;;;;;4938570;28;20423;-90
2023/08/19 05:41:33;;;;;;;26.25;24.05;;;21.50;99.90;;;;;;4956065;28;20408;-90
2023/08/19 05:43:59;;;;;;;25.63;23.43;;;22.10;99.90;;;;;;4938456;28;20949;-89
2023/08/19 05:46:25;;;;;;;25.75;23.48;;;21.80;99.90;;;;;;4940044;28;20436;-91
2023/08/19 05:48:50;;;;;;;25.47;23.17;;;21.80;99.90;;;;;;4954692;28;20507;-91
2023/08/19 05:51:16;;;;;;;26.05;23.85;;;22.20;99.90;;;;;;4955765;28;20408;-91
2023/08/19 05:53:42;;;;;;;24.60;22.50;;;21.80;99.90;;;;;;4955382;28;20420;-90
2023/08/19 05:56:07;;;;;;;25.03;22.90;;;21.80;99.90;;;;;;4955740;28;20996;-92
2023/08/19 05:58:33;;;;;;;25.42;23.23;;;21.90;99.90;;;;;;4955710;28;20832;-90
2023/08/19 06:01:02;;;;;;;25.40;23.10;;;21.90;99.90;;;;;;4965663;28;20449;-90
2023/08/19 06:03:28;;;;;;;25.00;22.80;;;21.80;99.90;;;;;;4958881;28;20417;-90
2023/08/19 06:05:54;;;;;;;24.80;22.55;;;22.20;99.90;;;;;;4957293;28;20410;-93
2023/08/19 06:08:19;;;;;;;25.40;23.03;;;21.90;99.90;;;;;;4958751;28;20438;-90
2023/08/19 06:10:45;;;;;;;24.27;22.17;;;22.00;99.90;;;;;;4957964;28;20418;-91
2023/08/19 06:13:11;;;;;;;23.67;21.53;;;22.00;99.90;;;;;;4958706;28;20445;-92
2023/08/19 06:15:37;;;;;;;23.75;21.55;;;22.30;99.90;;;;;;4958348;28;20418;-92
2023/08/19 06:18:03;;;;;;;23.02;20.95;;;22.20;99.90;;;;;;4957066;28;20422;-90
2023/08/19 06:20:29;;;;;;;23.20;21.05;;;22.00;99.90;;;;;;4958165;28;20497;-89
2023/08/19 06:22:54;;;;;;;22.20;20.30;;;22.10;99.90;;;;;;4956531;28;21276;-91
2023/08/19 06:25:20;;;;;;;22.97;20.90;;;22.30;99.90;;;;;;4958005;28;20419;-92
2023/08/19 06:27:46;;;;;;;20.90;19.20;;;22.10;99.90;;;;;;4956545;28;20530;-88
2023/08/19 06:30:12;;;;;;;20.63;18.83;;;22.20;99.90;;;;;;4958620;28;20466;-92
2023/08/19 06:32:38;;;;;;;20.10;18.30;;;22.20;99.90;;;;;;4957751;28;20414;-91
2023/08/19 06:35:04;;;;;;;20.87;18.90;;;22.20;99.90;;;;;;4957202;28;20514;-91
2023/08/19 06:37:33;;;;;;;19.70;18.02;;;22.20;99.90;;;;;;4958235;28;20430;-90
2023/08/19 06:40:06;;;;;;;19.50;17.77;;;22.20;99.90;;;;;;4956674;28;20512;-91
2023/08/19 06:42:35;;;;;;;19.65;17.95;;;22.30;99.90;;;;;;4974892;28;20414;-90
2023/08/19 06:45:02;;;;;;;18.85;17.25;;;22.40;99.90;;;;;;4957129;28;20415;-90
2023/08/19 06:47:33;;;;;;;19.20;17.40;;;22.40;99.90;;;;;;4958124;28;20442;-94
2023/08/19 06:49:59;;;;;;;19.20;17.50;;;22.40;99.90;;;;;;4956955;28;20411;-92
2023/08/19 06:52:25;;;;;;;19.03;17.20;;;22.50;99.90;;;;;;4957362;28;20430;-91
2023/08/19 06:54:51;;;;;;;18.10;16.45;;;22.50;99.90;;;;;;4958131;28;20498;-91
2023/08/19 06:57:28;;;;;;;19.00;17.20;;;22.60;99.90;;;;;;4955845;28;20431;-92
2023/08/19 07:00:05;;;;;;;18.63;16.83;;;22.70;99.90;;;;;;4955178;28;20416;-91
2023/08/19 07:02:34;;;;;;;18.58;16.88;;;22.70;99.90;;;;;;4955435;28;20494;-91
2023/08/19 07:05:01;;;;;;;17.85;16.13;;;22.80;99.90;;;;;;4956077;28;20411;-92
2023/08/19 07:07:29;;;;;;;18.33;16.70;;;23.30;99.90;;;;;;4956867;28;20497;-91
2023/08/19 07:09:55;;;;;;;17.27;15.77;;;22.90;99.90;;;;;;4955155;28;20399;-91
2023/08/19 07:12:21;;;;;;;17.15;15.60;;;23.00;99.90;;;;;;4957123;28;20415;-92
2023/08/19 07:14:47;;;;;;;17.13;15.43;;;23.10;99.90;;;;;;4954691;28;20406;-92
2023/08/19 07:17:16;;;;;;;16.75;15.05;;;23.20;99.90;;;;;;4956689;28;20881;-92
2023/08/19 07:19:43;;;;;;;16.23;14.82;;;23.20;99.90;;;;;;4955232;28;20904;-90
2023/08/19 07:22:09;;;;;;;15.27;13.97;;;23.30;99.90;;;;;;4956343;28;20415;-92
2023/08/19 07:24:35;;;;;;;16.05;14.52;;;23.40;99.90;;;;;;4956345;28;20903;-92
2023/08/19 07:27:03;;;;;;;16.10;14.57;;;23.40;99.90;;;;;;4955068;28;20442;-92
2023/08/19 07:29:34;;;;;;;15.32;13.93;;;23.50;99.90;;;;;;4973128;28;20412;-92
2023/08/19 07:32:02;;;;;;;16.13;14.55;;;23.60;99.90;;;;;;4954616;28;20418;-93
2023/08/19 07:34:28;;;;;;;15.50;14.02;;;23.60;99.90;;;;;;4956427;28;20410;-92
2023/08/19 07:36:54;;;;;;;15.50;14.10;;;23.60;99.90;;;;;;4954863;28;20418;-92
2023/08/19 07:39:22;;;;;;;14.87;13.57;;;23.90;99.90;;;;;;4956346;28;20757;-91
2023/08/19 07:41:48;;;;;;;15.00;13.70;;;23.70;99.90;;;;;;4955759;28;20494;-90
2023/08/19 07:44:14;;;;;;;14.80;13.45;;;23.60;99.90;;;;;;4955124;28;20419;-91
2023/08/19 07:46:40;;;;;;;15.10;13.70;;;23.70;99.90;;;;;;4956014;28;20480;-91
2023/08/19 07:49:05;;;;;;;14.88;13.48;;;23.90;99.90;;;;;;4970252;28;20458;-92
2023/08/19 07:51:32;;;;;;;15.00;13.53;;;23.70;99.90;;;;;;4956012;28;20771;-91
2023/08/19 07:53:57;;;;;;;14.90;13.50;;;23.70;99.90;;;;;;4954177;28;20514;-91
2023/08/19 07:56:23;;;;;;;14.93;13.48;;;24.00;99.90;;;;;;4955764;28;20450;-91
2023/08/19 07:58:49;;;;;;;15.53;14.10;;;23.70;99.90;;;;;;4955042;28;20422;-92
2023/08/19 08:01:15;;;;;;;14.68;13.38;;;23.80;99.90;;;;;;4954696;28;20430;-91
2023/08/19 08:03:41;;;;;;;14.95;13.48;;;24.00;99.90;;;;;;4955593;28;20402;-89
2023/08/19 08:06:06;;;;;;;14.27;12.87;;;23.90;99.90;;;;;;4954223;28;20468;-92
2023/08/19 08:08:32;;;;;;;14.85;13.32;;;24.20;99.90;;;;;;4955864;28;20414;-92
2023/08/19 08:10:58;;;;;;;14.60;13.23;;;23.90;99.90;;;;;;4953686;28;20445;-90
2023/08/19 08:13:24;;;;;;;14.57;13.10;;;24.00;99.90;;;;;;4956015;28;20503;-91
2023/08/19 08:15:50;;;;;;;14.80;13.50;;;23.70;99.90;;;;;;4954411;28;20437;-91
2023/08/19 08:18:16;;;;;;;14.37;12.97;;;24.50;99.90;;;;;;4954773;28;20502;-90
2023/08/19 08:20:41;;;;;;;13.40;12.20;;;24.40;99.90;;;;;;4955222;28;20417;-91
2023/08/19 08:23:07;;;;;;;14.40;12.83;;;24.30;99.90;;;;;;4954088;28;20485;-92
2023/08/19 08:25:33;;;;;;;13.47;12.10;;;24.70;99.90;;;;;;4955222;28;20403;-94
2023/08/19 08:27:58;;;;;;;13.30;12.00;;;24.40;99.90;;;;;;4969685;28;20434;-91
2023/08/19 08:30:24;;;;;;;13.43;12.13;;;24.50;99.90;;;;;;4955470;28;20552;-93
2023/08/19 08:32:51;;;;;;;13.18;11.82;;;24.70;99.90;;;;;;4954014;28;20418;-89
2023/08/19 08:35:17;;;;;;;12.90;11.63;;;24.80;99.90;;;;;;4955069;28;20838;-92
2023/08/19 08:37:43;;;;;;;13.10;11.70;;;25.30;99.90;;;;;;4954099;28;20923;-92
2023/08/19 08:40:09;;;;;;;12.82;11.63;;;25.80;99.90;;;;;;4954329;28;20414;-93
2023/08/19 08:42:35;;;;;;;12.60;11.30;;;26.00;99.90;;;;;;4955212;28;20410;-92
2023/08/19 08:45:01;;;;;;;12.53;11.23;;;26.50;99.90;;;;;;4954064;28;20424;-91
2023/08/19 08:47:27;;;;;;;12.05;11.00;;;26.50;99.90;;;;;;4954804;28;20462;-91
2023/08/19 08:49:54;;;;;;;12.00;10.90;;;26.40;99.90;;;;;;4953241;28;20757;-92
2023/08/19 08:52:20;;;;;;;12.30;11.05;;;26.20;99.90;;;;;;4954964;28;20442;-93
2023/08/19 08:54:51;;;;;;;12.30;11.05;;;26.40;99.90;;;;;;4953495;28;20414;-92
2023/08/19 08:57:17;;;;;;;12.15;11.05;;;26.30;99.90;;;;;;4954025;28;20406;-91
2023/08/19 08:59:43;;;;;;;11.65;10.65;;;26.30;99.90;;;;;;4954141;28;20938;-92
2023/08/19 09:02:12;;;;;;;11.25;10.05;;;26.20;99.90;;;;;;4952991;28;20927;-92
2023/08/19 09:04:40;;;;;;;11.50;10.60;;;26.20;99.90;;;;;;4954632;28;20961;-92
2023/08/19 09:07:12;;;;;;;11.48;10.23;;;26.20;99.90;;;;;;4952406;28;20437;-92
2023/08/19 09:09:40;;;;;;;10.35;9.35;;;26.20;99.90;;;;;;4954526;28;20425;-92
2023/08/19 09:12:11;;;;;;;11.53;10.33;;;26.30;99.90;;;;;;4952801;28;20415;-93
2023/08/19 09:14:42;;;;;;;11.25;10.15;;;26.30;99.90;;;;;;4970282;28;20399;-92
2023/08/19 09:17:13;;;;;;;11.40;10.30;;;26.50;99.90;;;;;;4954255;28;20411;-91
2023/08/19 09:19:39;;;;;;;11.45;10.25;;;26.60;99.90;;;;;;4953297;28;20506;-92
2023/08/19 09:22:18;;;;;;;11.60;10.40;;;26.40;99.90;;;;;;4954342;28;20547;-93
2023/08/19 09:24:44;;;;;;;10.75;9.70;;;26.50;99.90;;;;;;4952580;28;20513;-91
2023/08/19 09:27:10;;;;;;;10.52;9.50;;;26.60;99.90;;;;;;4953956;28;20513;-91
2023/08/19 09:29:36;;;;;;;11.05;9.95;;;26.70;99.90;;;;;;4953184;28;20520;-93
2023/08/19 09:32:02;;;;;;;9.73;8.73;;;27.00;99.90;;;;;;4953564;28;20418;-93
2023/08/19 09:34:28;;;;;;;11.83;10.63;;;26.90;99.90;;;;;;4953663;28;20418;-94
2023/08/19 09:36:55;;;;;;;12.10;10.90;;;27.00;99.90;;;;;;4953164;28;20476;-92
2023/08/19 09:39:25;;;;;;;12.02;9.82;;;27.10;99.90;;;;;;4954725;28;20492;-92
2023/08/19 09:41:57;;;;;;;10.82;9.73;;;27.30;99.90;;;;;;4952065;28;20435;-92
2023/08/19 09:44:22;;;;;;;10.23;9.23;;;27.10;99.90;;;;;;4954049;28;20407;-92
2023/08/19 09:46:48;;;;;;;10.98;9.20;;;27.40;99.90;;;;;;4952606;28;20781;-90
2023/08/19 09:49:21;;;;;;;9.47;8.57;;;27.50;99.90;;;;;;4953553;28;21198;-92
2023/08/19 09:51:53;;;;;;;10.57;9.57;;;27.50;99.90;;;;;;4953897;28;20916;-92
2023/08/19 09:54:19;;;;;;;9.98;8.85;;;27.30;99.90;;;;;;4952303;28;20426;-91
2023/08/19 09:56:55;;;;;;;10.27;9.27;;;27.40;99.90;;;;;;4954235;28;20418;-93
2023/08/19 09:59:25;;;;;;;10.27;9.18;;;27.30;99.90;;;;;;4952163;28;20934;-92
2023/08/19 10:01:52;;;;;;;10.98;9.65;;;27.30;99.90;;;;;;5036488;23;21330;-91
2023/08/19 10:04:19;;;;;;;10.20;9.30;;;27.20;99.90;;;;;;4993158;28;20425;-92
2023/08/19 10:06:51;;;;;;;11.43;9.48;;;27.20;99.90;;;;;;4992253;28;20811;-92
2023/08/19 10:09:22;;;;;;;10.40;9.43;;;27.20;99.90;;;;;;4991173;28;20780;-93
2023/08/19 10:11:52;;;;;;;10.83;9.50;;;27.20;99.90;;;;;;5008721;28;20419;-92
2023/08/19 10:14:26;;;;;;;10.50;9.37;;;27.20;99.90;;;;;;5007494;28;20415;-93
2023/08/19 10:16:52;;;;;;;9.80;8.90;;;27.20;99.90;;;;;;4992623;28;20404;-91
2023/08/19 10:19:22;;;;;;;10.05;9.00;;;27.40;99.90;;;;;;4991030;28;20421;-92
2023/08/19 10:21:50;;;;;;;10.00;9.00;;;27.60;99.90;;;;;;4992266;28;20430;-92
2023/08/19 10:24:17;;;;;;;10.27;9.27;;;27.70;99.90;;;;;;4994668;28;20443;-92
2023/08/19 10:26:49;;;;;;;10.82;9.82;;;27.80;99.90;;;;;;4994094;28;20430;-90
2023/08/19 10:29:16;;;;;;;10.68;9.57;;;27.80;99.90;;;;;;4995748;28;20419;-91
2023/08/19 10:31:44;;;;;;;10.63;9.63;;;27.80;99.90;;;;;;4993980;28;20399;-91
2023/08/19 10:34:30;;;;;;;11.38;9.70;;;28.00;99.90;;;;;;4995780;28;20478;-92
2023/08/19 10:37:10;;;;;;;11.45;9.75;;;28.20;99.90;;;;;;4994975;28;20646;-92
2023/08/19 10:39:36;;;;;;;11.32;10.13;;;28.30;99.90;;;;;;4994203;28;20954;-93
2023/08/19 10:42:02;;;;;;;10.60;9.50;;;28.50;99.90;;;;;;4995285;28;20435;-92
2023/08/19 10:44:33;;;;;;;11.95;9.75;;;28.60;99.90;;;;;;4994114;28;20827;-93
2023/08/19 10:47:16;;;;;;;12.23;10.90;;;28.30;99.90;;;;;;4995477;28;20469;-90
2023/08/19 10:49:41;;;;;;;11.43;10.27;;;28.40;99.90;;;;;;4994356;28;20423;-93
2023/08/19 10:52:07;;;;;;;11.70;10.50;;;28.30;99.90;;;;;;4994590;28;20423;-91
2023/08/19 10:54:41;;;;;;;12.60;11.30;;;28.30;99.90;;;;;;5011138;28;20461;-91
2023/08/19 10:57:15;;;;;;;14.43;13.13;;;28.30;99.90;;;;;;4993203;28;20491;-92
2023/08/19 10:59:43;;;;;;;13.73;12.33;;;28.10;99.90;;;;;;4995919;28;20798;-91
2023/08/19 11:02:09;;;;;;;15.48;13.98;;;28.50;99.90;;;;;;5009056;28;20951;-92
2023/08/19 11:04:41;;;;;;;14.38;13.15;;;28.70;99.90;;;;;;5011376;28;20415;-91
2023/08/19 11:07:07;;;;;;;17.15;15.52;;;29.00;99.90;;;;;;5006351;28;20439;-91
2023/08/19 11:09:33;;;;;;;18.70;17.00;;;29.30;99.90;;;;;;4994002;28;20419;-90
2023/08/19 11:11:59;;;;;;;17.20;15.80;;;29.40;99.90;;;;;;5011127;28;20958;-91
2023/08/19 11:14:25;;;;;;;20.25;18.45;;;29.80;99.90;;;;;;4993718;28;20409;-91
2023/08/19 11:16:53;;;;;;;20.90;19.13;;;29.90;99.90;;;;;;4994738;28;20881;-92
2023/08/19 11:19:19;;;;;;;23.52;21.27;;;29.90;99.90;;;;;;5009257;28;20776;-93
2023/08/19 11:21:45;;;;;;;22.58;20.67;;;29.70;99.90;;;;;;5011387;28;20827;-92
2023/08/19 11:24:11;;;;;;;24.77;22.50;;;29.50;99.90;;;;;;4993375;28;20787;-91
2023/08/19 11:26:45;;;;;;;26.00;23.75;;;29.10;99.90;;;;;;4994143;28;20470;-92
2023/08/19 11:29:12;;;;;;;28.25;25.80;;;28.80;99.90;;;;;;5011045;28;20430;-91
2023/08/19 11:31:40;;;;;;;26.80;24.50;;;28.40;99.90;;;;;;4993196;28;20914;-91
2023/08/19 11:34:10;;;;;;;28.52;26.00;;;28.10;99.90;;;;;;4994246;28;20408;-92
2023/08/19 11:36:36;;;;;;;30.20;27.70;;;28.00;99.90;;;;;;5008580;28;20519;-91
2023/08/19 11:39:04;;;;;;;30.52;27.98;;;27.70;99.90;;;;;;4994103;28;20473;-92
2023/08/19 11:41:31;;;;;;;34.42;31.15;;;27.40;99.90;;;;;;5009631;28;20856;-92
2023/08/19 11:43:57;;;;;;;47.83;43.03;;;27.20;99.90;;;;;;5010251;28;20411;-91
2023/08/19 11:46:28;;;;;;;51.22;45.85;;;27.00;99.90;;;;;;4994309;28;20407;-92
2023/08/19 11:48:54;;;;;;;55.13;49.33;;;26.50;99.90;;;;;;5009740;28;20916;-91
2023/08/19 11:51:21;;;;;;;54.25;48.50;;;26.50;99.90;;;;;;4994170;28;20403;-92
2023/08/19 11:53:52;;;;;;;54.97;49.17;;;26.20;99.90;;;;;;5009121;28;20419;-92
2023/08/19 11:56:17;;;;;;;53.20;47.70;;;25.90;99.90;;;;;;4994383;28;20426;-91
2023/08/19 11:58:50;;;;;;;53.10;47.38;;;25.80;99.90;;;;;;4992781;28;21187;-91
2023/08/19 12:01:20;;;;;;;50.28;44.97;;;25.60;99.90;;;;;;4993839;28;20827;-91
2023/08/19 12:03:48;;;;;;;47.78;42.85;;;25.70;99.90;;;;;;4993649;28;20434;-91
2023/08/19 12:06:15;;;;;;;47.50;42.67;;;25.40;99.90;;;;;;4992289;28;20399;-91
2023/08/19 12:08:42;;;;;;;41.15;37.00;;;25.40;99.90;;;;;;5010620;28;20852;-91
2023/08/19 12:11:09;;;;;;;34.40;30.90;;;25.60;99.90;;;;;;4992072;28;20407;-91
2023/08/19 12:13:35;;;;;;;33.00;29.60;;;25.50;99.90;;;;;;4994186;28;20411;-92
2023/08/19 12:16:01;;;;;;;29.80;26.80;;;25.80;99.90;;;;;;5009053;28;20490;-90
2023/08/19 12:18:32;;;;;;;29.02;26.13;;;25.60;99.90;;;;;;5009324;28;20418;-91
2023/08/19 12:20:58;;;;;;;26.52;23.73;;;25.70;99.90;;;;;;4993500;28;20407;-91
2023/08/19 12:23:24;;;;;;;25.95;23.27;;;26.20;99.90;;;;;;4992350;28;20926;-91
2023/08/19 12:25:51;;;;;;;21.60;19.43;;;25.90;99.90;;;;;;4994325;28;20792;-90
2023/08/19 12:28:17;;;;;;;18.45;16.50;;;25.80;99.90;;;;;;4991870;28;20442;-91
2023/08/19 12:30:43;;;;;;;17.42;15.55;;;25.60;99.90;;;;;;5010579;28;20819;-92